Time;durP1;ratioP1;P1;durP2;ratioP2;P2;SDS_P1;SDS_P2;PMS_P1;PMS_P2;Temp;Humidity;BMP_temperature;BMP_pressure;BME280_temperature;BME280_humidity;BME280_pressure;Samples;Min_cycle;Max_cycle;Signal;HPM_P1;HPM_P2
2022/11/02 00:00:43;;;;;;;9.13;3.20;;;;;;;10.03;100.00;99476.47;4977027;28;20187;-79
2022/11/02 00:03:13;;;;;;;9.70;3.30;;;;;;;9.96;100.00;99467.22;5020086;28;20280;-79
2022/11/02 00:05:42;;;;;;;9.87;2.90;;;;;;;9.98;100.00;99472.41;5031791;28;20216;-80
2022/11/02 00:08:12;;;;;;;9.07;3.13;;;;;;;10.03;100.00;99468.53;5033232;28;20190;-80
2022/11/02 00:10:42;;;;;;;13.43;3.33;;;;;;;10.05;100.00;99463.19;5050116;28;20192;-79
2022/11/02 00:13:11;;;;;;;8.90;3.17;;;;;;;10.04;100.00;99461.50;5114982;28;20227;-79
2022/11/02 00:15:40;;;;;;;8.60;3.10;;;;;;;9.95;100.00;99465.50;5108627;28;20216;-79
2022/11/02 00:18:12;;;;;;;9.57;2.93;;;;;;;9.91;100.00;99465.75;5112263;28;20198;-80
2022/11/02 00:20:43;;;;;;;7.80;3.30;;;;;;;9.86;100.00;99471.31;5112228;28;20203;-79
2022/11/02 00:23:12;;;;;;;11.53;2.77;;;;;;;9.96;100.00;99469.84;5114084;28;20215;-79
2022/11/02 00:25:45;;;;;;;8.27;2.90;;;;;;;9.97;100.00;99476.00;5105524;28;20190;-79
2022/11/02 00:28:14;;;;;;;13.40;3.23;;;;;;;9.93;100.00;99471.81;5114879;28;20187;-80
2022/11/02 00:30:45;;;;;;;17.53;4.27;;;;;;;9.87;100.00;99474.81;5032265;28;20189;-80
2022/11/02 00:33:13;;;;;;;11.00;3.30;;;;;;;9.93;100.00;99463.88;5027053;28;20713;-79
2022/11/02 00:35:44;;;;;;;9.37;2.60;;;;;;;9.93;100.00;99472.66;5029743;28;20197;-80
2022/11/02 00:38:12;;;;;;;6.87;2.60;;;;;;;9.94;100.00;99474.38;5031467;28;20190;-79
2022/11/02 00:40:43;;;;;;;7.87;2.83;;;;;;;10.03;100.00;99476.47;5029322;28;20341;-79
2022/11/02 00:43:13;;;;;;;10.47;3.00;;;;;;;9.87;100.00;99465.06;4933397;29;20221;-79
2022/11/02 00:45:41;;;;;;;9.37;2.97;;;;;;;9.86;100.00;99467.81;4929203;29;20205;-79
2022/11/02 00:48:10;;;;;;;9.77;2.70;;;;;;;9.80;100.00;99462.84;4946230;28;20201;-79
2022/11/02 00:50:41;;;;;;;12.63;3.40;;;;;;;9.74;100.00;99464.03;5011984;28;20314;-79
2022/11/02 00:53:09;;;;;;;10.47;3.07;;;;;;;9.73;100.00;99457.03;5007266;28;20195;-80
2022/11/02 00:55:38;;;;;;;6.97;2.73;;;;;;;9.64;100.00;99458.41;5010167;28;20681;-79
2022/11/02 00:58:10;;;;;;;9.20;2.87;;;;;;;9.60;100.00;99450.75;5011289;28;20256;-79
2022/11/02 01:00:39;;;;;;;8.80;3.00;;;;;;;9.68;100.00;99444.09;5032961;28;20195;-79
2022/11/02 01:03:10;;;;;;;11.83;2.90;;;;;;;9.45;100.00;99455.06;5107513;28;20211;-80
2022/11/02 01:05:39;;;;;;;12.67;2.73;;;;;;;9.54;100.00;99457.22;5115548;28;20195;-79
2022/11/02 01:08:08;;;;;;;11.43;3.20;;;;;;;9.58;100.00;99457.91;5104453;28;20661;-80
2022/11/02 01:10:37;;;;;;;8.37;3.00;;;;;;;9.60;100.00;99451.59;5114762;28;20645;-79
2022/11/02 01:13:12;;;;;;;10.20;2.83;;;;;;;9.56;100.00;99449.22;5114242;28;20219;-80
2022/11/02 01:15:41;;;;;;;8.80;3.10;;;;;;;9.50;100.00;99442.47;5105276;28;20247;-80
2022/11/02 01:18:14;;;;;;;11.10;3.00;;;;;;;9.54;100.00;99440.50;5114315;28;20298;-80
2022/11/02 01:20:42;;;;;;;9.27;3.00;;;;;;;9.61;100.00;99441.88;5109639;28;20248;-80
2022/11/02 01:23:10;;;;;;;9.60;2.67;;;;;;;9.53;100.00;99442.28;5113114;28;20274;-79
2022/11/02 01:25:44;;;;;;;11.00;2.80;;;;;;;9.58;100.00;99432.31;5110949;28;20264;-79
2022/11/02 01:28:14;;;;;;;13.67;2.90;;;;;;;9.59;100.00;99436.66;5113910;28;20187;-79
2022/11/02 01:30:45;;;;;;;7.00;2.73;;;;;;;9.57;100.00;99437.69;5107002;28;20191;-80
2022/11/02 01:33:14;;;;;;;9.53;2.83;;;;;;;9.63;100.00;99432.91;5113888;28;20335;-79
2022/11/02 01:35:44;;;;;;;17.27;3.37;;;;;;;9.60;100.00;99430.44;5047032;28;20692;-79
2022/11/02 01:38:16;;;;;;;15.83;3.23;;;;;;;9.62;100.00;99444.41;5049237;28;20655;-80
2022/11/02 01:40:44;;;;;;;14.73;3.43;;;;;;;9.56;100.00;99433.34;5050796;28;20235;-80
2022/11/02 01:43:22;;;;;;;14.00;2.90;;;;;;;9.68;100.00;99428.22;5045912;28;20197;-80
2022/11/02 01:45:54;;;;;;;8.67;2.90;;;;;;;9.72;100.00;99421.81;5011286;28;20199;-80
2022/11/02 01:48:28;;;;;;;10.60;2.63;;;;;;;9.73;100.00;99427.94;5012924;28;20263;-79
2022/11/02 01:50:57;;;;;;;10.33;2.50;;;;;;;9.84;100.00;99437.91;5015162;28;20202;-79
2022/11/02 01:53:25;;;;;;;9.67;2.63;;;;;;;9.87;100.00;99430.69;5023035;28;20318;-80
2022/11/02 01:55:54;;;;;;;8.43;2.57;;;;;;;9.95;100.00;99431.09;5061995;28;20199;-79
2022/11/02 01:58:25;;;;;;;14.43;3.13;;;;;;;9.95;100.00;99419.66;5066403;28;20258;-80
2022/11/02 02:00:55;;;;;;;7.53;2.37;;;;;;;10.00;100.00;99415.81;5071639;28;20230;-79
2022/11/02 02:03:24;;;;;;;12.10;2.50;;;;;;;9.93;100.00;99418.88;5077842;28;20204;-78
2022/11/02 02:05:58;;;;;;;10.43;3.10;;;;;;;10.02;100.00;99405.97;5080489;28;20230;-79
2022/11/02 02:08:28;;;;;;;10.20;2.60;;;;;;;10.04;100.00;99401.47;5066092;28;20226;-80
2022/11/02 02:10:58;;;;;;;12.07;2.70;;;;;;;10.07;100.00;99402.22;5092410;28;20252;-79
2022/11/02 02:13:29;;;;;;;7.63;2.50;;;;;;;10.02;100.00;99403.31;5107360;28;20250;-79
2022/11/02 02:16:16;;;;;;;7.70;2.60;;;;;;;10.10;100.00;99394.09;5107844;28;20193;-80
2022/11/02 02:18:49;;;;;;;14.10;2.70;;;;;;;10.18;100.00;99402.44;5109087;28;20247;-80
2022/11/02 02:21:35;;;;;;;9.93;2.53;;;;;;;10.21;100.00;99389.88;5110871;28;20335;-80
2022/11/02 02:24:21;;;;;;;11.00;2.83;;;;;;;10.24;100.00;99384.47;5108903;28;20230;-79
2022/11/02 02:27:12;;;;;;;11.40;3.00;;;;;;;10.25;100.00;99386.16;5107454;28;20726;-79
2022/11/02 02:30:03;;;;;;;11.70;2.53;;;;;;;10.29;100.00;99381.53;5108786;28;20287;-79
2022/11/02 02:32:45;;;;;;;12.77;2.90;;;;;;;10.24;100.00;99386.25;5112971;28;20373;-79
2022/11/02 02:35:25;;;;;;;11.63;2.50;;;;;;;10.35;100.00;99385.63;5113142;28;20195;-79
2022/11/02 02:38:00;;;;;;;8.10;2.20;;;;;;;10.40;100.00;99387.03;5106427;28;20221;-80
2022/11/02 02:40:34;;;;;;;8.67;2.50;;;;;;;10.32;100.00;99376.03;5106729;28;20278;-80
2022/11/02 02:43:08;;;;;;;8.70;2.33;;;;;;;10.13;100.00;99376.22;5112984;28;20195;-80
2022/11/02 02:45:43;;;;;;;9.40;2.93;;;;;;;9.95;100.00;99388.78;5109583;28;20276;-79
2022/11/02 02:48:18;;;;;;;9.63;2.83;;;;;;;9.76;100.00;99382.81;5113112;28;20273;-80
2022/11/02 02:50:49;;;;;;;6.50;2.73;;;;;;;9.88;100.00;99389.19;5113760;28;20191;-79
2022/11/02 02:53:27;;;;;;;10.50;2.87;;;;;;;9.85;100.00;99394.69;5115796;28;20195;-80
2022/11/02 02:56:00;;;;;;;8.83;2.90;;;;;;;9.72;100.00;99387.41;5116719;28;20199;-79
2022/11/02 02:58:40;;;;;;;11.47;2.80;;;;;;;9.70;100.00;99391.09;5114060;28;20205;-79
2022/11/02 03:01:15;;;;;;;9.03;3.13;;;;;;;9.81;100.00;99411.66;5112559;28;20199;-79
2022/11/02 03:03:47;;;;;;;10.50;3.10;;;;;;;9.79;100.00;99411.75;5113765;28;20222;-80
2022/11/02 03:06:20;;;;;;;12.27;2.73;;;;;;;9.80;100.00;99408.16;5066759;28;20200;-79
2022/11/02 03:08:57;;;;;;;11.37;2.83;;;;;;;9.90;100.00;99416.41;5066779;28;20193;-79
2022/11/02 03:11:25;;;;;;;10.10;3.20;;;;;;;9.92;100.00;99407.44;5011314;28;20206;-80
2022/11/02 03:14:22;;;;;;;8.23;2.60;;;;;;;9.89;100.00;99412.06;5013353;28;20272;-80
2022/11/02 03:17:05;;;;;;;12.63;3.23;;;;;;;9.98;100.00;99400.97;5010300;28;20210;-79
2022/11/02 03:19:43;;;;;;;13.93;3.07;;;;;;;9.92;100.00;99403.94;5013283;28;20197;-80
2022/11/02 03:22:21;;;;;;;11.03;2.70;;;;;;;9.99;100.00;99400.88;5013480;28;20186;-79
2022/11/02 03:24:59;;;;;;;7.67;3.10;;;;;;;10.09;100.00;99411.78;5009899;28;20214;-79
2022/11/02 03:27:37;;;;;;;10.67;2.73;;;;;;;10.30;100.00;99410.56;5013470;28;20190;-79
2022/11/02 03:30:11;;;;;;;7.33;2.57;;;;;;;10.36;100.00;99414.66;5053892;28;20196;-80
2022/11/02 03:32:52;;;;;;;9.83;2.93;;;;;;;10.40;100.00;99410.00;5073279;28;20564;-80
2022/11/02 03:35:29;;;;;;;12.63;2.80;;;;;;;10.47;100.00;99406.06;5068097;28;20242;-80
2022/11/02 03:38:02;;;;;;;7.73;3.00;;;;;;;10.47;100.00;99404.25;5103180;28;20642;-80
2022/11/02 03:40:35;;;;;;;6.97;2.50;;;;;;;10.52;100.00;99412.81;5109388;28;20213;-80
2022/11/02 03:43:05;;;;;;;10.80;2.90;;;;;;;10.65;100.00;99417.34;5107548;28;20212;-80
2022/11/02 03:45:39;;;;;;;7.93;2.87;;;;;;;10.66;100.00;99417.25;5115771;28;20216;-80
2022/11/02 03:48:11;;;;;;;10.70;2.70;;;;;;;10.71;100.00;99411.66;5115952;28;20195;-80
2022/11/02 03:50:45;;;;;;;6.60;2.67;;;;;;;10.66;100.00;99417.25;5108657;28;20206;-80
2022/11/02 03:53:19;;;;;;;10.87;3.13;;;;;;;10.71;100.00;99416.97;5110161;28;20321;-79
2022/11/02 03:55:52;;;;;;;15.40;2.90;;;;;;;10.75;100.00;99416.72;5111885;28;20198;-79
2022/11/02 03:58:22;;;;;;;8.70;2.60;;;;;;;10.79;100.00;99426.16;5109962;28;20673;-80
2022/11/02 04:00:54;;;;;;;6.37;2.73;;;;;;;10.88;100.00;99428.25;5111319;28;20232;-79
2022/11/02 04:03:28;;;;;;;10.10;2.57;;;;;;;10.96;100.00;99427.78;5104900;28;20195;-79
2022/11/02 04:05:57;;;;;;;8.40;2.60;;;;;;;10.96;100.00;99437.53;5115470;28;20214;-80
2022/11/02 04:08:31;;;;;;;10.27;2.43;;;;;;;11.05;100.00;99429.03;5108909;28;20691;-79
2022/11/02 04:16:31;;;;;;;6.37;2.10;;;;;;;10.98;100.00;99427.69;5115289;28;20199;-80
2022/11/02 04:27:20;;;;;;;6.47;2.40;;;;;;;11.23;100.00;99435.84;5052321;28;20197;-80
2022/11/02 04:29:49;;;;;;;12.20;2.53;;;;;;;11.21;100.00;99431.59;5049686;28;20189;-79
2022/11/02 04:35:07;;;;;;;10.87;2.47;;;;;;;11.14;100.00;99439.91;5051363;28;20211;-80
2022/11/02 04:40:25;;;;;;;6.67;2.37;;;;;;;11.09;100.00;99422.56;5052057;28;20189;-81
2022/11/02 04:42:54;;;;;;;9.50;2.40;;;;;;;10.95;100.00;99427.88;5049487;28;20235;-80
2022/11/02 04:45:23;;;;;;;8.33;2.60;;;;;;;11.05;100.00;99434.31;5017529;28;20267;-80
2022/11/02 04:47:51;;;;;;;12.83;2.47;;;;;;;11.03;100.00;99441.53;5035063;28;20278;-80
2022/11/02 04:50:21;;;;;;;8.83;3.23;;;;;;;10.97;100.00;99450.69;5049346;28;20212;-80
2022/11/02 04:52:56;;;;;;;9.40;2.40;;;;;;;11.02;100.00;99458.38;5106310;28;20203;-80
2022/11/02 04:55:24;;;;;;;9.07;2.67;;;;;;;10.88;100.00;99454.75;5108940;28;20225;-80
2022/11/02 04:57:53;;;;;;;12.97;2.90;;;;;;;10.86;100.00;99458.44;5108827;28;20538;-80
2022/11/02 05:00:22;;;;;;;10.17;2.80;;;;;;;10.88;100.00;99462.69;5108077;28;20207;-80
2022/11/02 05:02:51;;;;;;;14.13;3.00;;;;;;;10.81;100.00;99464.03;5101930;28;20244;-80
2022/11/02 05:05:21;;;;;;;8.70;2.70;;;;;;;10.89;100.00;99464.41;5110754;28;20232;-80
2022/11/02 05:07:49;;;;;;;11.30;2.97;;;;;;;10.99;100.00;99463.84;5100321;28;20203;-80
2022/11/02 05:10:18;;;;;;;8.20;2.50;;;;;;;10.87;100.00;99457.50;5105114;28;20676;-80
2022/11/02 05:12:47;;;;;;;11.80;3.07;;;;;;;10.78;100.00;99458.91;5110647;28;20215;-80
2022/11/02 05:15:15;;;;;;;9.50;3.10;;;;;;;10.47;100.00;99465.16;5062479;28;20248;-80
2022/11/02 05:17:43;;;;;;;9.87;2.87;;;;;;;10.54;100.00;99476.28;5113875;28;20206;-80
2022/11/02 05:20:12;;;;;;;16.90;3.07;;;;;;;10.46;100.00;99476.72;5110312;28;20657;-80
2022/11/02 05:22:43;;;;;;;8.57;2.83;;;;;;;10.41;100.00;99476.09;5109965;28;20187;-80
2022/11/02 05:25:12;;;;;;;9.10;2.77;;;;;;;10.30;100.00;99475.88;5110829;28;20198;-79
2022/11/02 05:27:42;;;;;;;11.40;2.77;;;;;;;10.49;100.00;99475.66;5062121;28;20226;-82
2022/11/02 05:30:12;;;;;;;11.93;2.70;;;;;;;10.31;100.00;99481.09;5111042;28;20191;-80
2022/11/02 05:32:40;;;;;;;10.53;2.90;;;;;;;10.31;100.00;99480.22;5110972;28;20217;-80
2022/11/02 05:35:09;;;;;;;12.57;3.83;;;;;;;10.14;100.00;99496.22;5110992;28;20199;-80
2022/11/02 05:37:37;;;;;;;13.50;3.13;;;;;;;10.12;100.00;99495.44;5112433;28;20227;-80
2022/11/02 05:40:09;;;;;;;11.50;3.20;;;;;;;10.02;100.00;99500.38;5109762;28;20676;-80
2022/11/02 05:42:37;;;;;;;9.23;3.27;;;;;;;9.95;100.00;99505.19;5055996;28;20236;-80
2022/11/02 05:45:07;;;;;;;8.00;2.90;;;;;;;9.74;100.00;99515.16;5105722;28;20263;-80
2022/11/02 05:47:36;;;;;;;9.57;3.23;;;;;;;9.74;100.00;99525.72;5108632;28;20244;-79
2022/11/02 05:50:06;;;;;;;16.33;3.43;;;;;;;9.77;100.00;99526.53;5107611;28;20248;-80
2022/11/02 05:52:36;;;;;;;12.60;3.73;;;;;;;9.79;100.00;99528.13;5049499;28;20639;-79
2022/11/02 05:55:05;;;;;;;13.87;3.87;;;;;;;9.72;100.00;99532.91;5045713;28;20201;-80
2022/11/02 05:57:36;;;;;;;12.27;4.00;;;;;;;9.66;100.00;99535.91;5024965;28;20391;-80
2022/11/02 06:00:06;;;;;;;10.13;3.83;;;;;;;9.69;100.00;99538.38;5053271;28;20185;-80
2022/11/02 06:02:35;;;;;;;14.83;4.07;;;;;;;9.62;100.00;99544.91;5051023;28;20193;-79
2022/11/02 06:05:05;;;;;;;10.47;3.97;;;;;;;9.64;100.00;99558.91;5046560;28;20189;-79
2022/11/02 06:07:35;;;;;;;12.83;4.37;;;;;;;9.63;100.00;99554.56;5049362;28;20217;-80
2022/11/02 06:10:05;;;;;;;11.83;3.40;;;;;;;9.51;100.00;99564.94;5050568;28;20205;-80
2022/11/02 06:12:36;;;;;;;11.83;3.83;;;;;;;9.61;100.00;99553.78;5047540;28;20189;-80
2022/11/02 06:15:05;;;;;;;13.50;3.83;;;;;;;9.52;100.00;99567.50;5048011;28;20295;-80
2022/11/02 06:17:37;;;;;;;9.53;3.50;;;;;;;9.62;100.00;99558.13;5083770;28;20232;-80
2022/11/02 06:20:09;;;;;;;14.03;4.03;;;;;;;9.63;100.00;99566.94;5113122;28;20190;-80
2022/11/02 06:22:41;;;;;;;12.60;3.90;;;;;;;9.56;100.00;99565.56;5108967;28;20194;-80
2022/11/02 06:25:10;;;;;;;8.60;3.20;;;;;;;9.59;100.00;99570.69;5112938;28;20191;-80
2022/11/02 06:27:41;;;;;;;11.97;4.07;;;;;;;9.72;100.00;99572.56;5112924;28;20219;-80
2022/11/02 06:30:13;;;;;;;14.27;3.43;;;;;;;9.55;100.00;99566.47;5117844;28;20186;-80
2022/11/02 06:32:47;;;;;;;10.93;3.40;;;;;;;9.70;100.00;99577.09;5065355;28;20240;-80
2022/11/02 06:35:16;;;;;;;12.67;3.90;;;;;;;9.75;100.00;99582.16;5109647;28;20207;-80
2022/11/02 06:37:46;;;;;;;11.40;3.20;;;;;;;9.85;100.00;99578.09;5105705;28;20276;-80
2022/11/02 06:40:17;;;;;;;17.70;3.50;;;;;;;9.84;100.00;99584.28;5117230;28;20201;-80
2022/11/02 06:42:55;;;;;;;13.47;3.50;;;;;;;9.83;100.00;99587.00;5117327;28;20219;-80
2022/11/02 06:45:51;;;;;;;11.57;3.37;;;;;;;9.71;100.00;99592.03;5071180;28;20223;-80
2022/11/02 06:48:20;;;;;;;8.13;3.40;;;;;;;9.72;100.00;99591.09;5114776;28;20195;-80
2022/11/02 06:50:48;;;;;;;10.87;3.50;;;;;;;9.77;100.00;99598.81;5108538;28;20207;-81
2022/11/02 06:53:19;;;;;;;7.10;2.90;;;;;;;9.67;100.00;99593.16;5076491;28;20195;-80
2022/11/02 06:55:52;;;;;;;12.00;3.10;;;;;;;9.69;100.00;99598.34;5064160;28;20191;-80
2022/11/02 06:58:23;;;;;;;8.37;3.33;;;;;;;9.82;100.00;99595.88;5111124;28;20711;-80
2022/11/02 07:00:57;;;;;;;13.53;3.23;;;;;;;9.91;100.00;99606.84;5108744;28;20707;-80
2022/11/02 07:03:27;;;;;;;9.30;3.13;;;;;;;9.87;100.00;99601.81;5109616;28;20247;-80
2022/11/02 07:05:56;;;;;;;13.67;3.10;;;;;;;9.84;100.00;99613.38;5116752;28;20191;-80
2022/11/02 07:08:28;;;;;;;10.27;3.00;;;;;;;9.88;100.00;99612.31;5115318;28;20210;-80
2022/11/02 07:10:57;;;;;;;7.90;2.80;;;;;;;9.78;100.00;99613.72;5054012;28;20190;-80
2022/11/02 07:13:28;;;;;;;9.87;3.23;;;;;;;9.75;100.00;99621.84;5053981;28;20197;-80
2022/11/02 07:15:57;;;;;;;8.93;3.07;;;;;;;9.70;100.00;99624.72;5048221;28;20196;-80
2022/11/02 07:18:26;;;;;;;9.37;2.83;;;;;;;9.68;100.00;99623.09;5051942;28;20232;-80
2022/11/02 07:20:54;;;;;;;11.23;2.90;;;;;;;9.69;100.00;99628.28;5047020;28;20237;-80
2022/11/02 07:23:23;;;;;;;10.33;3.13;;;;;;;9.66;100.00;99635.56;5052318;28;20196;-80
2022/11/02 07:25:51;;;;;;;12.67;3.57;;;;;;;9.67;100.00;99635.47;5047587;28;20201;-80
2022/11/02 07:28:20;;;;;;;8.57;2.57;;;;;;;9.77;100.00;99640.28;5047579;28;20213;-80
2022/11/02 07:30:54;;;;;;;10.40;2.70;;;;;;;9.80;100.00;99640.94;5050993;28;20272;-80
2022/11/02 07:33:22;;;;;;;8.37;2.80;;;;;;;9.85;100.00;99638.94;5053254;28;20189;-80
2022/11/02 07:35:51;;;;;;;10.03;2.83;;;;;;;9.91;100.00;99645.66;5049588;28;20246;-80
2022/11/02 07:38:19;;;;;;;10.77;3.10;;;;;;;9.95;100.00;99645.44;5048835;28;20197;-80
2022/11/02 07:40:49;;;;;;;12.43;3.37;;;;;;;10.06;100.00;99642.22;5051183;28;20189;-80
2022/11/02 07:43:18;;;;;;;11.23;3.23;;;;;;;10.19;100.00;99637.94;5116030;28;20195;-80
2022/11/02 07:45:46;;;;;;;7.17;2.80;;;;;;;10.19;100.00;99648.53;5112344;28;20195;-79
2022/11/02 07:48:17;;;;;;;11.80;3.10;;;;;;;10.41;100.00;99650.88;5115864;28;20225;-80
2022/11/02 07:50:46;;;;;;;8.77;2.70;;;;;;;10.50;100.00;99653.03;5111271;28;20252;-80
2022/11/02 07:53:14;;;;;;;10.53;2.90;;;;;;;10.67;100.00;99654.72;5105820;28;20203;-80
2022/11/02 07:55:43;;;;;;;9.97;2.40;;;;;;;10.84;100.00;99654.63;5108758;28;20198;-80
2022/11/02 07:58:14;;;;;;;9.67;3.10;;;;;;;11.05;100.00;99652.53;5108225;28;20623;-80
2022/11/02 08:00:51;;;;;;;7.77;2.80;;;;;;;11.18;100.00;99650.03;5111484;28;20229;-80
2022/11/02 08:03:28;;;;;;;7.70;2.53;;;;;;;11.16;100.00;99657.22;5115580;28;20205;-80
2022/11/02 08:06:01;;;;;;;12.03;3.37;;;;;;;11.23;100.00;99647.13;4980454;28;20198;-81
2022/11/02 08:08:31;;;;;;;8.27;2.80;;;;;;;11.28;100.00;99642.38;5010888;28;20214;-80
2022/11/02 08:11:05;;;;;;;8.13;2.60;;;;;;;11.40;100.00;99639.88;5011375;28;20203;-80
2022/11/02 08:13:35;;;;;;;14.17;3.20;;;;;;;11.49;100.00;99640.28;5011478;28;20339;-80
2022/11/02 08:16:08;;;;;;;11.17;2.40;;;;;;;11.62;100.00;99639.44;4969410;28;20203;-80
2022/11/02 08:18:39;;;;;;;12.03;2.47;;;;;;;11.47;100.00;99640.34;4973833;28;20305;-80
2022/11/02 08:21:08;;;;;;;10.87;2.67;;;;;;;11.44;100.00;99644.03;4966962;28;20258;-81
2022/11/02 08:23:36;;;;;;;11.33;2.37;;;;;;;11.68;100.00;99640.88;4972393;28;20203;-80
2022/11/02 08:26:05;;;;;;;8.30;2.23;;;;;;;11.82;100.00;99648.00;4970023;28;20655;-80
2022/11/02 08:28:35;;;;;;;10.30;2.70;;;;;;;11.84;100.00;99639.00;4973591;28;20220;-80
2022/11/02 08:31:04;;;;;;;5.13;2.07;;;;;;;11.94;100.00;99637.47;5022528;28;20623;-80
2022/11/02 08:33:33;;;;;;;11.40;2.27;;;;;;;11.80;100.00;99644.59;5056779;28;20207;-80
2022/11/02 08:36:04;;;;;;;8.37;2.13;;;;;;;12.02;100.00;99642.31;5114974;28;20259;-79
2022/11/02 08:38:33;;;;;;;8.13;2.20;;;;;;;12.03;100.00;99639.56;5061926;28;20195;-80
2022/11/02 08:41:01;;;;;;;8.00;2.27;;;;;;;12.07;100.00;99644.72;5107106;28;20218;-79
2022/11/02 08:43:29;;;;;;;7.93;2.17;;;;;;;12.17;100.00;99633.41;5110090;28;20199;-80
2022/11/02 08:46:01;;;;;;;6.60;2.10;;;;;;;12.24;100.00;99633.84;5108085;28;20205;-80
2022/11/02 08:48:45;;;;;;;7.53;2.33;;;;;;;12.37;100.00;99631.28;5109561;28;20215;-79
2022/11/02 08:51:15;;;;;;;8.33;2.33;;;;;;;12.39;100.00;99627.59;5031677;28;20224;-79
2022/11/02 08:53:46;;;;;;;12.27;2.80;;;;;;;12.43;100.00;99622.91;5026909;28;20221;-79
2022/11/02 08:56:19;;;;;;;9.73;2.53;;;;;;;12.66;100.00;99619.63;5030018;28;20200;-80
2022/11/02 08:58:48;;;;;;;9.13;2.50;;;;;;;12.74;100.00;99622.66;5031739;28;20243;-80
2022/11/02 09:01:16;;;;;;;7.17;2.03;;;;;;;12.84;100.00;99629.06;5027547;28;20221;-79
2022/11/02 09:03:45;;;;;;;9.67;2.30;;;;;;;13.17;100.00;99627.78;5026497;28;20293;-79
2022/11/02 09:06:15;;;;;;;9.70;2.50;;;;;;;12.98;100.00;99625.50;5030132;28;20205;-80
2022/11/02 09:08:44;;;;;;;6.23;2.10;;;;;;;13.17;100.00;99630.44;5046753;28;20242;-80
2022/11/02 09:11:12;;;;;;;11.47;3.10;;;;;;;12.90;100.00;99635.78;5111819;28;20191;-79
2022/11/02 09:13:41;;;;;;;8.40;2.10;;;;;;;13.06;100.00;99633.81;5107292;28;20223;-80
2022/11/02 09:16:09;;;;;;;9.17;2.50;;;;;;;12.97;100.00;99621.13;5111903;28;20197;-80
2022/11/02 09:18:38;;;;;;;7.57;2.47;;;;;;;13.07;100.00;99632.84;5111121;28;20220;-80
2022/11/02 09:21:07;;;;;;;9.90;2.20;;;;;;;13.13;100.00;99627.16;5112275;28;20195;-80
2022/11/02 09:23:37;;;;;;;9.03;2.13;;;;;;;13.42;100.00;99646.50;5107298;28;20202;-80
2022/11/02 09:26:06;;;;;;;8.60;2.27;;;;;;;13.30;100.00;99634.00;5109291;28;20263;-79
2022/11/02 09:28:34;;;;;;;9.47;2.40;;;;;;;13.24;100.00;99641.56;5107234;28;20251;-80
2022/11/02 09:31:04;;;;;;;8.40;2.20;;;;;;;13.68;100.00;99654.47;5114410;28;20195;-80
2022/11/02 09:33:37;;;;;;;14.07;2.40;;;;;;;13.55;100.00;99651.81;5064425;28;20794;-80
2022/11/02 09:36:06;;;;;;;9.60;2.23;;;;;;;13.95;100.00;99649.06;5011585;28;20206;-80
2022/11/02 09:38:37;;;;;;;6.80;2.00;;;;;;;14.06;100.00;99651.81;5009001;28;20198;-80
2022/11/02 09:41:12;;;;;;;9.37;2.07;;;;;;;13.58;100.00;99650.75;5000898;28;20194;-79
2022/11/02 09:44:00;;;;;;;8.53;2.30;;;;;;;13.71;100.00;99644.50;5007451;28;20252;-80
2022/11/02 09:46:32;;;;;;;17.17;6.07;;;;;;;13.60;100.00;99655.00;5010165;28;20206;-80
2022/11/02 09:49:05;;;;;;;29.57;16.37;;;;;;;13.42;100.00;99640.31;5005064;28;20214;-80
2022/11/02 09:51:37;;;;;;;16.57;6.60;;;;;;;13.67;100.00;99658.97;5007277;28;20202;-80
2022/11/02 09:54:24;;;;;;;10.97;3.30;;;;;;;13.87;100.00;99656.72;5048650;28;20199;-80
2022/11/02 09:56:58;;;;;;;7.80;3.00;;;;;;;13.88;100.00;99675.25;5110813;28;20195;-80
2022/11/02 09:59:27;;;;;;;10.37;2.00;;;;;;;13.68;100.00;99666.00;5107462;28;20255;-80
2022/11/02 10:02:04;;;;;;;7.03;2.03;;;;;;;13.61;100.00;99694.00;5048182;28;20201;-81
2022/11/02 10:05:03;;;;;;;5.97;1.77;;;;;;;13.89;100.00;99682.28;5045882;28;20201;-80
2022/11/02 10:08:00;;;;;;;7.67;1.90;;;;;;;13.99;100.00;99675.41;5018888;28;20240;-80
2022/11/02 10:10:50;;;;;;;10.53;3.10;;;;;;;13.83;100.00;99674.75;5046616;28;20255;-80
2022/11/02 10:13:30;;;;;;;6.63;2.33;;;;;;;13.71;100.00;99668.47;5046866;28;20200;-80
2022/11/02 10:16:05;;;;;;;8.07;2.40;;;;;;;13.59;100.00;99687.91;5048480;28;20201;-79
2022/11/02 10:18:36;;;;;;;7.70;1.50;;;;;;;13.84;100.00;99683.59;5049093;28;20220;-80
2022/11/02 10:21:08;;;;;;;10.03;2.47;;;;;;;13.93;100.00;99691.78;5050554;28;20691;-80
2022/11/02 10:23:40;;;;;;;7.70;2.10;;;;;;;14.13;100.00;99685.06;5044058;28;20231;-80
2022/11/02 10:26:17;;;;;;;7.40;1.97;;;;;;;14.55;100.00;99681.19;5059640;28;20211;-80
2022/11/02 10:28:49;;;;;;;7.03;1.73;;;;;;;14.57;100.00;99689.06;5087650;28;20219;-80
2022/11/02 10:31:25;;;;;;;6.00;1.83;;;;;;;14.55;100.00;99696.34;5087025;28;20662;-80
2022/11/02 10:33:54;;;;;;;6.70;1.60;;;;;;;14.14;100.00;99694.75;5092658;28;20251;-80
2022/11/02 10:36:41;;;;;;;9.77;1.90;;;;;;;14.28;100.00;99696.44;5084649;28;20199;-80
2022/11/02 10:39:22;;;;;;;8.40;2.20;;;;;;;13.70;100.00;99696.03;5088238;28;20203;-80
2022/11/02 10:42:29;;;;;;;8.40;1.60;;;;;;;14.07;100.00;99696.16;5087499;28;20223;-80
2022/11/02 10:45:17;;;;;;;11.17;2.17;;;;;;;14.16;100.00;99689.31;5093230;28;20195;-80
2022/11/02 10:48:03;;;;;;;9.03;1.97;;;;;;;14.57;100.00;99695.28;5089864;28;20212;-80
2022/11/02 10:50:44;;;;;;;8.17;2.13;;;;;;;14.38;100.00;99696.66;5057548;28;20202;-80
2022/11/02 10:53:34;;;;;;;5.63;2.00;;;;;;;14.37;100.00;99697.59;5089908;28;20200;-80
2022/11/02 10:56:16;;;;;;;7.27;1.57;;;;;;;14.27;100.00;99703.59;5092519;28;20188;-79
2022/11/02 10:58:56;;;;;;;5.73;1.90;;;;;;;14.79;100.00;99707.06;5091488;28;20195;-80
2022/11/02 11:01:26;;;;;;;9.60;2.07;;;;;;;14.60;100.00;99704.88;5088303;28;20234;-81
2022/11/02 11:03:58;;;;;;;7.87;1.40;;;;;;;14.91;100.00;99714.16;5089193;28;20204;-80
2022/11/02 11:06:31;;;;;;;7.47;1.70;;;;;;;15.00;100.00;99702.81;5028071;28;20202;-81
2022/11/02 11:09:03;;;;;;;8.37;1.80;;;;;;;15.02;100.00;99697.38;5023630;28;20692;-80
2022/11/02 11:11:36;;;;;;;9.20;1.77;;;;;;;15.20;100.00;99703.16;5030295;28;20200;-80
2022/11/02 11:14:15;;;;;;;8.20;1.93;;;;;;;15.52;100.00;99693.56;5028460;28;20221;-80
2022/11/02 11:17:15;;;;;;;8.27;1.93;;;;;;;15.07;100.00;99696.06;5033506;28;20344;-81
2022/11/02 11:20:07;;;;;;;5.03;1.60;;;;;;;15.05;100.00;99695.31;5034164;28;20300;-80
2022/11/02 11:22:37;;;;;;;7.30;1.83;;;;;;;14.93;100.00;99700.72;5033497;28;20205;-81
2022/11/02 11:25:21;;;;;;;6.37;1.40;;;;;;;14.87;100.00;99694.03;5084512;28;20224;-80
2022/11/02 11:27:56;;;;;;;6.27;1.50;;;;;;;15.06;100.00;99707.72;5116447;28;20187;-81
2022/11/02 11:30:29;;;;;;;8.90;1.70;;;;;;;14.81;100.00;99678.47;5116163;28;20210;-80
2022/11/02 11:33:21;;;;;;;6.90;1.60;;;;;;;15.18;100.00;99698.78;5115645;28;20277;-81
2022/11/02 11:35:51;;;;;;;6.33;1.60;;;;;;;15.49;100.00;99672.47;5116192;28;20187;-81
2022/11/02 11:38:22;;;;;;;9.70;2.00;;;;;;;15.33;100.00;99670.09;5114841;28;20192;-81
2022/11/02 11:40:54;;;;;;;8.57;1.90;;;;;;;15.74;100.00;99675.00;5111921;28;20191;-80
2022/11/02 11:43:26;;;;;;;7.33;1.80;;;;;;;15.59;100.00;99668.13;5108527;28;20256;-80
2022/11/02 11:45:58;;;;;;;7.50;1.80;;;;;;;15.41;100.00;99659.69;5111333;28;20187;-80
2022/11/02 11:48:38;;;;;;;9.60;1.73;;;;;;;15.39;100.00;99679.47;5113865;28;20195;-81
2022/11/02 11:51:26;;;;;;;6.30;1.77;;;;;;;15.10;100.00;99669.16;5111248;28;20240;-80
2022/11/02 11:54:19;;;;;;;7.40;2.07;;;;;;;14.51;100.00;99676.19;5114564;28;20231;-80
2022/11/02 11:56:49;;;;;;;7.13;1.87;;;;;;;14.88;100.00;99677.91;5112575;28;20199;-80
2022/11/02 11:59:27;;;;;;;5.83;1.40;;;;;;;14.90;100.00;99672.44;5111337;28;20639;-80
2022/11/02 12:01:59;;;;;;;7.73;2.20;;;;;;;15.37;100.00;99676.91;5112728;28;20190;-80
2022/11/02 12:04:30;;;;;;;5.57;1.40;;;;;;;15.51;100.00;99675.00;5115335;28;20232;-81
2022/11/02 12:07:20;;;;;;;7.43;1.60;;;;;;;15.62;100.00;99680.41;5109877;28;20203;-81
2022/11/02 12:10:01;;;;;;;9.30;1.73;;;;;;;15.93;100.00;99665.56;5112630;28;20210;-81